Time;durP1;ratioP1;P1;durP2;ratioP2;P2;SDS_P1;SDS_P2;PMS_P1;PMS_P2;Temp;Humidity;BMP_temperature;BMP_pressure;BME280_temperature;BME280_humidity;BME280_pressure;Samples;Min_cycle;Max_cycle;Signal;HPM_P1;HPM_P2
2022/09/06 00:01:21;;;;;;;9.70;3.85;;;;;;;16.63;50.46;101546.34;7398572;19;20023;-68
2022/09/06 00:03:49;;;;;;;5.32;2.95;;;;;;;16.58;50.56;101539.44;7398158;19;20018;-68
2022/09/06 00:06:20;;;;;;;6.43;3.00;;;;;;;16.55;50.53;101539.50;7399921;19;20007;-68
2022/09/06 00:08:51;;;;;;;5.57;2.97;;;;;;;16.53;50.54;101545.78;7400564;19;20014;-68
2022/09/06 00:11:20;;;;;;;2.95;2.38;;;;;;;16.52;50.29;101546.72;7397163;19;20414;-68
2022/09/06 00:13:50;;;;;;;5.07;2.70;;;;;;;16.49;50.22;101537.09;7397051;19;20343;-68
2022/09/06 00:16:21;;;;;;;5.40;3.05;;;;;;;16.47;50.44;101543.34;7399656;19;20011;-68
2022/09/06 00:18:50;;;;;;;5.03;2.70;;;;;;;16.45;50.32;101536.34;7398932;19;20339;-68
2022/09/06 00:21:21;;;;;;;6.15;2.55;;;;;;;16.43;50.25;101538.16;7398228;19;20510;-68
2022/09/06 00:23:53;;;;;;;6.00;2.60;;;;;;;16.41;50.05;101537.34;7397149;19;20019;-68
2022/09/06 00:26:22;;;;;;;5.05;2.78;;;;;;;16.39;50.28;101533.88;7400000;19;20010;-68
2022/09/06 00:28:51;;;;;;;3.25;2.60;;;;;;;16.38;50.06;101526.84;7397185;19;20031;-68
2022/09/06 00:31:22;;;;;;;4.88;2.60;;;;;;;16.37;49.92;101522.47;7396730;19;20018;-68
2022/09/06 00:33:51;;;;;;;6.60;2.80;;;;;;;16.35;49.83;101524.31;7399776;19;20031;-68
2022/09/06 00:36:21;;;;;;;3.72;2.85;;;;;;;16.34;49.94;101514.66;7398870;19;20015;-68
2022/09/06 00:38:49;;;;;;;5.68;3.50;;;;;;;16.32;50.14;101516.47;7399141;19;20031;-68
2022/09/06 00:41:21;;;;;;;3.65;2.70;;;;;;;16.29;49.86;101513.94;7398030;19;20014;-68
2022/09/06 00:43:49;;;;;;;8.73;3.72;;;;;;;16.28;49.86;101520.16;7397114;19;20027;-68
2022/09/06 00:46:21;;;;;;;5.35;3.08;;;;;;;16.26;50.17;101516.66;7399043;19;20023;-69
2022/09/06 00:48:54;;;;;;;4.45;3.15;;;;;;;16.24;49.93;101518.53;7397169;19;20022;-68
2022/09/06 00:51:26;;;;;;;3.78;2.58;;;;;;;16.19;50.02;101521.31;7397474;19;20010;-68
2022/09/06 00:53:54;;;;;;;4.70;3.20;;;;;;;16.19;50.13;101520.44;7396150;19;20018;-68
2022/09/06 00:56:26;;;;;;;3.10;2.20;;;;;;;16.16;49.92;101521.41;7398489;19;20026;-68
2022/09/06 00:58:56;;;;;;;3.50;2.58;;;;;;;16.13;49.88;101517.06;7398189;19;20010;-68
2022/09/06 01:01:24;;;;;;;6.13;2.42;;;;;;;16.10;49.96;101517.19;7396837;19;20023;-68
2022/09/06 01:03:53;;;;;;;3.22;2.58;;;;;;;16.08;50.05;101518.16;7396681;19;20019;-68
2022/09/06 01:06:27;;;;;;;5.07;2.60;;;;;;;16.06;50.08;101527.91;7396213;19;20022;-68
2022/09/06 01:09:09;;;;;;;4.07;3.00;;;;;;;16.04;50.05;101527.09;7397846;19;20011;-68
2022/09/06 01:11:56;;;;;;;6.13;4.05;;;;;;;16.00;50.01;101525.44;7397011;19;20435;-68
2022/09/06 01:14:36;;;;;;;4.45;2.97;;;;;;;15.98;50.09;101522.88;7398272;19;20517;-68
2022/09/06 01:17:12;;;;;;;5.40;3.05;;;;;;;15.95;49.96;101512.38;7398377;19;20035;-67
2022/09/06 01:20:16;;;;;;;2.83;2.28;;;;;;;15.92;50.02;101518.66;7397835;19;20018;-68
2022/09/06 01:23:15;;;;;;;5.30;2.33;;;;;;;15.89;50.05;101518.72;7397534;19;20023;-67
2022/09/06 01:25:59;;;;;;;4.93;2.65;;;;;;;15.86;50.18;101525.91;7396275;19;20035;-68
2022/09/06 01:28:34;;;;;;;5.68;2.70;;;;;;;15.83;49.98;101526.00;7397929;19;20018;-68
2022/09/06 01:31:19;;;;;;;4.03;2.63;;;;;;;15.80;50.10;101519.00;7394446;19;20535;-67
2022/09/06 01:33:53;;;;;;;4.20;2.30;;;;;;;15.77;50.30;101525.25;7397799;19;20023;-67
2022/09/06 01:36:24;;;;;;;;;;;;;;;15.75;50.22;101523.56;7398511;19;20073;-68
2022/09/06 01:38:53;;;;;;;3.45;2.30;;;;;;;15.72;50.03;101515.72;7396890;19;20274;-67
2022/09/06 01:41:21;;;;;;;5.60;2.83;;;;;;;15.71;50.30;101519.25;7396150;19;20015;-67
2022/09/06 01:43:55;;;;;;;5.07;2.45;;;;;;;15.69;50.33;101531.69;7395691;19;20119;-67
2022/09/06 01:46:33;;;;;;;5.07;2.35;;;;;;;15.66;50.20;101537.06;7396536;19;20015;-67
2022/09/06 01:49:21;;;;;;;5.05;2.50;;;;;;;15.64;50.19;101534.47;7397263;19;20027;-68
2022/09/06 01:52:04;;;;;;;5.00;2.28;;;;;;;15.62;50.25;101538.94;7395712;19;20390;-67
2022/09/06 01:54:48;;;;;;;2.15;1.92;;;;;;;15.60;50.20;101543.41;7397149;19;20022;-67
2022/09/06 01:57:33;;;;;;;2.85;1.80;;;;;;;15.56;50.29;101534.69;7396677;19;20018;-67
2022/09/06 02:00:09;;;;;;;3.13;2.58;;;;;;;15.53;50.01;101539.22;7397017;19;20035;-67
2022/09/06 02:02:50;;;;;;;4.22;2.63;;;;;;;15.51;50.39;101536.63;7394751;19;20011;-68
2022/09/06 02:05:25;;;;;;;3.65;2.25;;;;;;;15.48;50.25;101534.09;7396530;19;20107;-68
2022/09/06 02:07:59;;;;;;;4.07;2.08;;;;;;;15.45;50.02;101534.16;7396648;19;20024;-68
2022/09/06 02:10:33;;;;;;;3.28;2.38;;;;;;;15.43;50.11;101534.22;7396354;19;20133;-67
2022/09/06 02:13:05;;;;;;;3.47;2.50;;;;;;;15.39;50.17;101540.50;7396546;19;20014;-68
2022/09/06 02:15:41;;;;;;;5.22;2.20;;;;;;;15.38;50.07;101537.88;7396406;19;20038;-67
2022/09/06 02:18:14;;;;;;;5.50;2.67;;;;;;;15.36;50.19;101530.00;7395819;19;20363;-68
2022/09/06 02:20:47;;;;;;;2.65;1.73;;;;;;;15.31;50.17;101530.13;7396112;19;20038;-67
2022/09/06 02:23:18;;;;;;;3.05;1.90;;;;;;;15.28;50.25;101526.72;7394835;19;20035;-67
2022/09/06 02:25:54;;;;;;;3.47;2.13;;;;;;;15.25;50.38;101522.41;7396037;19;20010;-67
2022/09/06 02:28:24;;;;;;;3.97;2.20;;;;;;;15.23;50.45;101512.78;7393485;19;20462;-67
2022/09/06 02:30:59;;;;;;;2.88;1.83;;;;;;;15.16;50.29;101517.34;7394764;19;20018;-67
2022/09/06 02:33:32;;;;;;;3.15;2.17;;;;;;;15.15;50.41;101515.63;7394175;19;20027;-67
2022/09/06 02:36:07;;;;;;;2.60;1.80;;;;;;;15.11;50.65;101517.50;7394804;19;20480;-67
2022/09/06 02:38:39;;;;;;;3.25;2.00;;;;;;;15.09;50.76;101516.66;7394862;19;20546;-68
2022/09/06 02:41:08;;;;;;;4.10;2.05;;;;;;;15.06;50.87;101516.75;7394844;19;20027;-67
2022/09/06 02:43:37;;;;;;;5.88;2.58;;;;;;;15.03;50.73;101511.56;7394237;19;20100;-68
2022/09/06 02:46:08;;;;;;;3.92;1.90;;;;;;;15.02;50.66;101514.25;7395232;19;20027;-67
2022/09/06 02:48:37;;;;;;;2.67;1.90;;;;;;;14.99;50.65;101508.13;7395295;19;20015;-68
2022/09/06 02:51:07;;;;;;;2.58;1.92;;;;;;;14.97;50.74;101506.44;7394006;19;20021;-67
2022/09/06 02:53:35;;;;;;;6.40;1.85;;;;;;;14.96;50.84;101507.34;7393292;19;20026;-68
2022/09/06 02:56:05;;;;;;;1.95;1.40;;;;;;;14.93;50.85;101507.44;7395014;19;20014;-68
2022/09/06 02:58:33;;;;;;;5.68;2.35;;;;;;;14.91;50.90;101506.59;7394745;19;20022;-68
2022/09/06 03:01:02;;;;;;;3.33;1.83;;;;;;;14.89;50.85;101508.44;7393287;19;20018;-68
2022/09/06 03:03:33;;;;;;;2.65;2.00;;;;;;;14.87;50.92;101503.19;7392367;19;20023;-68
2022/09/06 03:06:01;;;;;;;4.20;2.00;;;;;;;14.84;51.02;101498.00;7394538;19;20018;-68
2022/09/06 03:08:32;;;;;;;3.17;2.10;;;;;;;14.80;51.06;101502.50;7392382;19;20015;-68
2022/09/06 03:11:02;;;;;;;1.88;1.40;;;;;;;14.77;51.01;101494.66;7394576;19;20022;-68
2022/09/06 03:13:30;;;;;;;4.50;2.00;;;;;;;14.74;50.90;101497.38;7394439;19;20022;-68
2022/09/06 03:16:00;;;;;;;4.55;1.63;;;;;;;14.72;50.98;101498.31;7394200;19;20033;-68
2022/09/06 03:18:33;;;;;;;3.05;1.90;;;;;;;14.69;51.37;101494.00;7394049;19;20031;-68
2022/09/06 03:21:01;;;;;;;3.63;1.80;;;;;;;14.67;51.33;101501.06;7391912;19;20481;-69
2022/09/06 03:23:31;;;;;;;6.25;1.92;;;;;;;14.64;51.43;101503.78;7392961;19;20011;-68
2022/09/06 03:25:59;;;;;;;3.65;1.80;;;;;;;14.63;51.32;101509.97;7393560;19;20014;-67
2022/09/06 03:28:28;;;;;;;6.60;2.03;;;;;;;14.61;51.42;101503.88;7393585;19;20014;-68
2022/09/06 03:30:57;;;;;;;3.35;1.77;;;;;;;14.58;51.68;101504.78;7394315;19;20018;-68
2022/09/06 03:33:26;;;;;;;4.38;2.05;;;;;;;14.56;51.60;101509.28;7393645;19;20027;-68
2022/09/06 03:35:59;;;;;;;4.43;2.08;;;;;;;14.55;51.70;101509.31;7393105;19;20427;-68
2022/09/06 03:38:29;;;;;;;5.40;2.20;;;;;;;14.52;51.57;101507.63;7393714;19;20037;-68
2022/09/06 03:40:58;;;;;;;7.22;2.90;;;;;;;14.50;51.65;101512.06;7392823;19;20363;-68
2022/09/06 03:43:28;;;;;;;3.10;2.30;;;;;;;14.47;51.71;101510.38;7392720;19;20042;-68
2022/09/06 03:45:58;;;;;;;5.68;2.20;;;;;;;14.45;51.63;101514.81;7393576;19;20011;-67
2022/09/06 03:48:29;;;;;;;3.83;1.98;;;;;;;14.43;51.83;101514.00;7392972;19;20492;-68
2022/09/06 03:51:01;;;;;;;2.83;2.33;;;;;;;14.41;51.95;101512.31;7392940;19;20010;-67
2022/09/06 03:53:31;;;;;;;6.00;2.00;;;;;;;14.39;52.10;101519.41;7392705;19;20085;-68
2022/09/06 03:56:00;;;;;;;4.10;1.70;;;;;;;14.36;52.12;101516.84;7399610;19;20033;-68
2022/09/06 03:58:32;;;;;;;5.50;2.25;;;;;;;14.35;52.16;101505.41;7399963;19;20481;-68
2022/09/06 04:01:05;;;;;;;3.85;1.70;;;;;;;14.33;52.18;101499.28;7398996;19;20027;-68
2022/09/06 04:03:35;;;;;;;3.25;1.77;;;;;;;14.30;52.11;101491.47;7397034;19;20529;-68
2022/09/06 04:06:07;;;;;;;2.88;2.03;;;;;;;14.26;52.05;101485.38;7397147;19;20051;-68
2022/09/06 04:08:37;;;;;;;5.47;2.28;;;;;;;14.22;52.06;101486.38;7399273;19;20510;-68
2022/09/06 04:11:07;;;;;;;3.35;2.25;;;;;;;14.19;52.05;101486.44;7398076;19;20018;-68
2022/09/06 04:13:36;;;;;;;7.47;1.95;;;;;;;14.15;52.41;101472.47;7399444;19;20015;-68
2022/09/06 04:16:06;;;;;;;2.17;1.42;;;;;;;14.13;52.16;101470.78;7399395;19;20376;-68
2022/09/06 04:18:35;;;;;;;3.03;1.30;;;;;;;14.10;52.23;101458.53;7399055;19;20019;-68
2022/09/06 04:21:06;;;;;;;2.78;1.58;;;;;;;14.09;52.28;101463.81;7398504;19;20018;-68
2022/09/06 04:23:35;;;;;;;1.55;1.40;;;;;;;14.08;52.24;101464.72;7399038;19;20018;-68
2022/09/06 04:26:03;;;;;;;4.50;1.73;;;;;;;14.07;52.10;101465.66;7399020;19;20387;-68
2022/09/06 04:28:32;;;;;;;5.97;1.50;;;;;;;14.06;52.38;101459.50;7398698;19;20039;-68
2022/09/06 04:31:02;;;;;;;3.00;1.50;;;;;;;14.06;52.25;101458.63;7398168;19;20014;-68
2022/09/06 04:33:32;;;;;;;3.47;1.70;;;;;;;14.06;52.17;101463.91;7398213;19;20036;-67
2022/09/06 04:36:01;;;;;;;4.45;1.85;;;;;;;14.06;52.16;101463.91;7398487;19;20051;-69
2022/09/06 04:38:37;;;;;;;2.50;1.55;;;;;;;14.04;52.11;101469.25;7398451;19;20022;-68
2022/09/06 04:41:06;;;;;;;2.83;1.27;;;;;;;14.03;52.32;101459.59;7396596;19;20022;-69
2022/09/06 04:43:34;;;;;;;6.15;1.65;;;;;;;14.02;52.22;101468.41;7397118;19;20022;-67
2022/09/06 04:46:08;;;;;;;4.00;1.38;;;;;;;14.01;52.43;101466.66;7398895;19;20031;-68
2022/09/06 04:48:36;;;;;;;4.57;1.90;;;;;;;14.00;52.20;101475.47;7399244;19;20014;-68
2022/09/06 04:51:05;;;;;;;2.75;1.38;;;;;;;14.02;52.36;101477.16;7397908;19;20079;-67
2022/09/06 04:53:36;;;;;;;1.95;1.50;;;;;;;14.03;52.07;101467.50;7398098;19;20023;-68
2022/09/06 04:56:05;;;;;;;3.40;1.33;;;;;;;14.05;52.08;101465.66;7398564;19;20027;-67
2022/09/06 04:58:33;;;;;;;4.65;1.42;;;;;;;14.07;52.22;101463.88;7398124;19;20021;-68
2022/09/06 05:01:02;;;;;;;2.88;1.30;;;;;;;14.08;52.00;101467.38;7395348;19;20014;-67
2022/09/06 05:03:31;;;;;;;2.90;1.60;;;;;;;14.09;52.04;101470.00;7394862;19;20345;-68
2022/09/06 05:06:09;;;;;;;2.42;1.45;;;;;;;14.11;52.11;101470.78;7390341;19;20015;-67
2022/09/06 05:08:47;;;;;;;2.33;1.33;;;;;;;14.15;52.02;101472.47;7396351;19;20018;-67
2022/09/06 05:11:15;;;;;;;1.90;1.38;;;;;;;14.18;51.80;101476.81;7395348;19;20014;-68
2022/09/06 05:13:44;;;;;;;1.92;1.35;;;;;;;14.21;52.20;101478.50;7396830;19;20014;-68
2022/09/06 05:16:12;;;;;;;4.68;1.23;;;;;;;14.25;51.99;101474.88;7396633;19;20023;-67
2022/09/06 05:18:41;;;;;;;2.80;1.55;;;;;;;14.28;51.91;101477.41;7393223;19;20041;-67
2022/09/06 05:21:09;;;;;;;2.47;1.40;;;;;;;14.30;51.98;101476.47;7395726;19;20037;-67
2022/09/06 05:23:38;;;;;;;3.42;1.80;;;;;;;14.36;51.60;101479.91;7395168;19;20037;-67
2022/09/06 05:26:09;;;;;;;4.97;1.60;;;;;;;14.40;51.91;101479.75;7396302;19;20024;-68
2022/09/06 05:28:38;;;;;;;2.85;1.23;;;;;;;14.42;51.55;101472.66;7397763;19;20014;-67
2022/09/06 05:31:08;;;;;;;3.42;1.10;;;;;;;14.44;51.81;101484.03;7394223;19;20041;-67
2022/09/06 05:33:37;;;;;;;1.58;1.17;;;;;;;14.50;51.53;101485.66;7397152;19;20031;-67
2022/09/06 05:36:06;;;;;;;2.42;1.50;;;;;;;14.53;51.56;101480.28;7395067;19;20035;-67
2022/09/06 05:38:34;;;;;;;5.82;2.53;;;;;;;14.58;51.62;101485.47;7393881;19;20018;-68
2022/09/06 05:41:09;;;;;;;3.08;1.42;;;;;;;14.63;51.61;101479.16;7395209;19;20015;-68
2022/09/06 05:43:40;;;;;;;2.00;1.20;;;;;;;14.68;51.51;101470.28;7394870;19;20020;-67
2022/09/06 05:46:10;;;;;;;7.88;4.40;;;;;;;14.72;51.38;101470.16;7395853;19;20014;-67
2022/09/06 05:48:38;;;;;;;3.47;1.60;;;;;;;14.77;51.32;101462.97;7394138;19;20018;-67
2022/09/06 05:51:11;;;;;;;1.90;1.45;;;;;;;14.79;51.19;101466.41;7396120;19;20015;-68
2022/09/06 05:53:41;;;;;;;3.83;1.50;;;;;;;14.83;51.37;101461.91;7394556;19;20019;-67
2022/09/06 05:56:11;;;;;;;5.65;1.55;;;;;;;14.89;51.50;101472.31;7396287;19;20024;-68
2022/09/06 05:58:42;;;;;;;2.50;1.40;;;;;;;14.94;51.48;101467.75;7396222;19;20092;-68
2022/09/06 06:01:17;;;;;;;3.40;1.67;;;;;;;14.99;51.40;101467.63;7394296;19;20018;-68
2022/09/06 06:03:52;;;;;;;3.08;1.50;;;;;;;15.04;51.30;101468.38;7394005;19;20018;-69
2022/09/06 06:06:23;;;;;;;3.22;1.80;;;;;;;15.11;51.12;101467.28;7395127;19;20524;-67
2022/09/06 06:08:51;;;;;;;2.47;1.50;;;;;;;15.18;51.09;101461.81;7395454;19;20482;-68
2022/09/06 06:11:21;;;;;;;2.13;1.63;;;;;;;15.23;50.97;101455.47;7394236;19;20027;-67
2022/09/06 06:13:52;;;;;;;4.93;1.55;;;;;;;15.31;50.83;101447.31;7395402;19;20019;-68
2022/09/06 06:16:22;;;;;;;2.88;1.80;;;;;;;15.37;50.61;101443.63;7395896;19;20031;-67
2022/09/06 06:18:51;;;;;;;3.55;1.52;;;;;;;15.42;50.82;101434.63;7393535;19;20015;-68
2022/09/06 06:21:21;;;;;;;4.60;1.45;;;;;;;15.48;50.63;101441.53;7394309;19;20014;-68
2022/09/06 06:23:52;;;;;;;2.88;1.30;;;;;;;15.53;50.25;101430.78;7395102;19;20438;-68
2022/09/06 06:26:21;;;;;;;2.10;1.80;;;;;;;15.59;50.23;101438.53;7394463;19;20027;-68
2022/09/06 06:28:53;;;;;;;5.18;1.77;;;;;;;15.62;49.99;101425.22;7395109;19;20481;-68
2022/09/06 06:31:22;;;;;;;2.70;1.55;;;;;;;15.65;50.16;101435.69;7393658;19;20018;-67
2022/09/06 06:33:51;;;;;;;4.38;1.13;;;;;;;15.68;50.16;101432.94;7395073;19;20082;-67
2022/09/06 06:36:23;;;;;;;4.22;1.88;;;;;;;15.70;50.28;101431.13;7394084;19;20485;-67
2022/09/06 06:38:53;;;;;;;4.55;1.50;;;;;;;15.74;50.20;101440.66;7395754;19;20014;-68
2022/09/06 06:41:24;;;;;;;5.68;1.58;;;;;;;15.79;50.11;101428.16;7393403;19;20014;-68
2022/09/06 06:43:57;;;;;;;4.88;2.05;;;;;;;15.84;50.15;101440.44;7393240;19;20035;-68
2022/09/06 06:46:28;;;;;;;3.83;2.03;;;;;;;15.87;50.00;101435.03;7392985;19;20027;-68
2022/09/06 06:48:57;;;;;;;3.42;1.95;;;;;;;15.93;49.80;101442.75;7394103;19;20504;-68
2022/09/06 06:51:27;;;;;;;2.85;1.50;;;;;;;15.94;49.72;101437.41;7392060;19;20408;-68
2022/09/06 06:53:57;;;;;;;5.03;2.55;;;;;;;16.01;49.77;101443.38;7394742;19;20010;-68
2022/09/06 06:56:27;;;;;;;2.20;1.40;;;;;;;16.07;50.06;101442.31;7394274;19;20010;-68
2022/09/06 06:59:00;;;;;;;2.88;1.63;;;;;;;16.12;50.00;101441.25;7394250;19;20014;-69
2022/09/06 07:01:31;;;;;;;6.55;3.15;;;;;;;16.16;50.02;101441.13;7392655;19;20485;-69
2022/09/06 07:04:00;;;;;;;3.33;1.80;;;;;;;16.20;50.07;101434.81;7392342;19;20489;-68
2022/09/06 07:06:29;;;;;;;5.65;2.03;;;;;;;16.25;49.92;101435.50;7394189;19;20026;-68
2022/09/06 07:08:58;;;;;;;3.58;1.95;;;;;;;16.29;50.05;101431.84;7393670;19;20365;-68
2022/09/06 07:11:27;;;;;;;2.75;1.70;;;;;;;16.29;50.24;101430.06;7392624;19;20014;-68
2022/09/06 07:13:58;;;;;;;5.85;2.17;;;;;;;16.35;50.30;101436.94;7393357;19;20014;-68
2022/09/06 07:16:28;;;;;;;3.90;1.80;;;;;;;16.40;49.91;101428.81;7393292;19;20423;-68
2022/09/06 07:18:57;;;;;;;4.32;1.70;;;;;;;16.43;50.03;101423.44;7393799;19;20011;-68
2022/09/06 07:21:27;;;;;;;7.93;1.98;;;;;;;16.47;50.24;101429.44;7392668;19;20035;-68
2022/09/06 07:23:57;;;;;;;4.85;1.88;;;;;;;16.49;49.85;101433.81;7394124;19;20042;-69
2022/09/06 07:26:27;;;;;;;1.92;1.58;;;;;;;16.53;50.19;101442.47;7391628;19;20391;-70
2022/09/06 07:29:00;;;;;;;4.03;1.92;;;;;;;16.58;50.39;101448.47;7393754;19;20481;-69
2022/09/06 07:31:31;;;;;;;3.63;2.15;;;;;;;16.64;50.29;101450.91;7399702;19;20018;-67
2022/09/06 07:34:00;;;;;;;5.18;2.88;;;;;;;16.70;50.37;101453.34;7401120;19;20025;-69
2022/09/06 07:36:29;;;;;;;4.18;2.55;;;;;;;16.77;49.98;101449.56;7400345;19;20041;-69
2022/09/06 07:38:57;;;;;;;7.68;2.70;;;;;;;16.85;50.00;101449.28;7400068;19;20018;-69
2022/09/06 07:41:26;;;;;;;1.90;1.70;;;;;;;16.93;49.76;101443.72;7398070;19;20351;-68
2022/09/06 07:43:56;;;;;;;2.85;2.10;;;;;;;17.01;49.78;101440.78;7400133;19;20031;-68
2022/09/06 07:46:27;;;;;;;4.57;2.33;;;;;;;17.09;49.78;101444.00;7398023;19;20014;-68
2022/09/06 07:48:55;;;;;;;4.68;2.33;;;;;;;17.16;49.47;101447.28;7398502;19;20010;-68
2022/09/06 07:51:24;;;;;;;9.90;2.10;;;;;;;17.23;49.58;101454.94;7397584;19;20027;-68
2022/09/06 07:53:55;;;;;;;4.05;2.25;;;;;;;17.29;49.62;101445.91;7400334;19;20018;-68
2022/09/06 07:56:24;;;;;;;5.10;2.45;;;;;;;17.35;49.35;101436.81;7400096;19;20015;-68
2022/09/06 07:58:55;;;;;;;6.72;1.85;;;;;;;17.41;49.31;101440.13;7399770;19;20383;-68
2022/09/06 08:01:36;;;;;;;4.03;2.63;;;;;;;17.49;49.11;101449.53;7398931;19;20035;-68
2022/09/06 08:04:13;;;;;;;4.35;2.25;;;;;;;17.55;49.57;101451.97;7396114;19;20481;-68
2022/09/06 08:06:45;;;;;;;4.35;2.17;;;;;;;17.62;49.30;101453.44;7399082;19;20077;-68
2022/09/06 08:09:14;;;;;;;5.20;2.20;;;;;;;17.69;49.52;101448.75;7400280;19;20048;-68
2022/09/06 08:11:42;;;;;;;3.88;2.17;;;;;;;17.78;49.33;101458.13;7397707;19;20453;-68
2022/09/06 08:14:11;;;;;;;4.07;2.60;;;;;;;17.85;49.08;101467.59;7399244;19;20021;-68
2022/09/06 08:16:42;;;;;;;3.13;2.17;;;;;;;17.93;48.80;101454.84;7399240;19;20499;-68
2022/09/06 08:19:11;;;;;;;4.22;2.03;;;;;;;18.00;48.84;101455.50;7399963;19;20026;-68
2022/09/06 08:21:39;;;;;;;3.55;2.33;;;;;;;18.07;49.05;101446.34;7398143;19;20053;-68
2022/09/06 08:24:10;;;;;;;4.88;2.78;;;;;;;18.14;48.94;101447.81;7398842;19;20031;-68
2022/09/06 08:26:41;;;;;;;5.22;2.30;;;;;;;18.21;48.87;101438.66;7397126;19;20027;-68
2022/09/06 08:29:11;;;;;;;4.50;2.70;;;;;;;18.29;48.76;101443.63;7399099;19;20011;-69
2022/09/06 08:31:44;;;;;;;5.22;2.20;;;;;;;18.37;48.61;101441.53;7396202;19;20045;-68
2022/09/06 08:34:14;;;;;;;3.90;2.00;;;;;;;18.45;48.25;101443.84;7398860;19;20015;-68
2022/09/06 08:36:44;;;;;;;5.80;2.20;;;;;;;18.53;48.57;101446.16;7399624;19;20019;-68
2022/09/06 08:39:13;;;;;;;4.22;2.13;;;;;;;18.59;47.99;101440.59;7395676;19;20010;-69
2022/09/06 08:41:57;;;;;;;4.25;2.28;;;;;;;18.66;48.18;101436.69;7396544;19;20026;-68
2022/09/06 08:44:28;;;;;;;;;;;;;;;18.71;47.86;101434.69;7399537;19;20037;-68
2022/09/06 08:47:03;;;;;;;3.08;2.30;;;;;;;18.79;47.83;101426.41;7396379;19;20342;-68
2022/09/06 08:49:35;;;;;;;4.70;2.67;;;;;;;18.89;47.80;101429.47;7396608;19;20049;-68
2022/09/06 08:52:24;;;;;;;5.47;2.88;;;;;;;19.01;48.03;101431.63;7396007;19;20485;-68
2022/09/06 08:55:00;;;;;;;4.38;2.50;;;;;;;19.14;47.66;101436.38;7398764;19;20014;-68
2022/09/06 08:57:47;;;;;;;5.57;2.58;;;;;;;19.26;47.67;101418.94;7398069;19;20506;-68
2022/09/06 09:00:16;;;;;;;4.75;2.20;;;;;;;19.36;47.25;101425.56;7395710;19;20018;-69
2022/09/06 09:02:51;;;;;;;5.80;3.13;;;;;;;19.45;46.93;101426.91;7397100;19;20031;-68
2022/09/06 09:05:24;;;;;;;3.97;2.60;;;;;;;19.54;47.02;101422.00;7397744;19;20032;-68
2022/09/06 09:08:02;;;;;;;4.38;3.33;;;;;;;19.65;47.10;101417.97;7398234;19;20011;-71
2022/09/06 09:10:32;;;;;;;3.85;2.90;;;;;;;19.74;46.87;101414.84;7395472;19;20031;-70
2022/09/06 09:13:04;;;;;;;6.78;2.38;;;;;;;19.83;46.71;101413.56;7398414;19;20043;-70
2022/09/06 09:15:33;;;;;;;7.05;2.70;;;;;;;19.92;46.66;101407.78;7397077;19;20014;-70
2022/09/06 09:18:05;;;;;;;4.78;2.53;;;;;;;20.02;46.53;101413.50;7397176;19;20028;-70
2022/09/06 09:20:34;;;;;;;4.18;2.35;;;;;;;20.12;46.77;101403.22;7396842;19;20022;-68
2022/09/06 09:23:03;;;;;;;5.22;3.53;;;;;;;20.21;46.45;101402.75;7397249;19;20030;-70
2022/09/06 09:25:35;;;;;;;4.68;2.92;;;;;;;20.29;46.49;101411.19;7396563;19;20018;-69
2022/09/06 09:28:04;;;;;;;6.32;3.03;;;;;;;20.34;46.67;101413.63;7396554;19;20011;-69
2022/09/06 09:30:48;;;;;;;5.18;2.90;;;;;;;20.42;46.08;101398.13;7394873;19;20025;-69
2022/09/06 09:33:28;;;;;;;3.92;2.88;;;;;;;20.51;46.40;101394.09;7397569;19;20028;-69
2022/09/06 09:35:58;;;;;;;5.05;2.85;;;;;;;20.58;46.09;101390.16;7396755;19;20022;-70
2022/09/06 09:38:29;;;;;;;3.60;2.45;;;;;;;20.63;46.35;101381.91;7394734;19;20026;-70
2022/09/06 09:41:02;;;;;;;3.72;2.70;;;;;;;20.71;46.38;101377.03;7396823;19;20022;-70
2022/09/06 09:43:32;;;;;;;4.10;3.60;;;;;;;20.78;46.39;101377.59;7396889;19;20078;-69
2022/09/06 09:46:29;;;;;;;4.50;3.08;;;;;;;20.84;45.92;101377.25;7395455;19;20019;-69
2022/09/06 09:49:07;;;;;;;6.00;4.10;;;;;;;20.89;46.02;101367.19;7396834;19;20043;-69
2022/09/06 09:51:37;;;;;;;4.93;3.25;;;;;;;20.89;45.86;101360.97;7394120;19;20039;-68
2022/09/06 09:54:07;;;;;;;5.10;2.97;;;;;;;20.90;45.65;101354.69;7395616;19;20473;-69
2022/09/06 09:56:42;;;;;;;5.03;3.13;;;;;;;20.88;46.14;101353.91;7397405;19;20028;-69
2022/09/06 09:59:22;;;;;;;4.15;3.15;;;;;;;20.87;45.83;101342.41;7396948;19;20014;-69
2022/09/06 10:01:51;;;;;;;6.47;3.28;;;;;;;20.85;45.98;101341.63;7394843;19;20039;-69
2022/09/06 10:04:31;;;;;;;4.07;3.35;;;;;;;20.86;45.98;101346.00;7393921;19;20024;-68
2022/09/06 10:07:15;;;;;;;6.63;3.33;;;;;;;20.87;46.03;101339.72;7394746;19;20022;-70
2022/09/06 10:09:45;;;;;;;;;;;;;;;20.89;45.99;101339.63;7399354;19;20018;-71
2022/09/06 10:12:19;;;;;;;3.83;3.25;;;;;;;20.92;46.56;101342.16;7393896;19;20002;-71
2022/09/06 10:14:49;;;;;;;6.22;3.65;;;;;;;20.95;45.95;101342.84;7394982;19;20503;-70
2022/09/06 10:17:23;;;;;;;5.57;3.30;;;;;;;20.98;45.85;101344.47;7396324;19;20027;-71
2022/09/06 10:19:54;;;;;;;;;;;;;;;21.03;46.04;101344.19;7396366;19;20018;-70
2022/09/06 10:22:30;;;;;;;3.42;2.75;;;;;;;21.04;46.15;101336.13;7394621;19;20373;-71
2022/09/06 10:25:30;;;;;;;6.05;2.60;;;;;;;21.15;45.76;101340.84;7395270;19;20033;-72
2022/09/06 10:28:27;;;;;;;6.28;3.30;;;;;;;21.22;45.73;101336.00;7395498;19;20031;-71
2022/09/06 10:31:08;;;;;;;6.72;3.22;;;;;;;21.29;45.70;101338.25;7393543;19;20481;-72
2022/09/06 10:33:49;;;;;;;3.42;3.13;;;;;;;21.44;45.81;101335.63;7395015;19;20018;-71
2022/09/06 10:36:27;;;;;;;4.38;3.13;;;;;;;21.55;45.56;101330.56;7394025;19;20024;-71
2022/09/06 10:38:59;;;;;;;6.35;3.15;;;;;;;21.68;45.19;101327.19;7394771;19;20032;-71
2022/09/06 10:41:42;;;;;;;5.97;3.03;;;;;;;21.82;45.09;101329.03;7393527;19;20114;-71
2022/09/06 10:44:24;;;;;;;5.15;3.20;;;;;;;21.95;45.14;101321.97;7395493;19;20030;-71
2022/09/06 10:47:01;;;;;;;5.63;3.03;;;;;;;22.10;44.21;101314.84;7393540;19;20018;-71
2022/09/06 10:49:29;;;;;;;6.68;3.50;;;;;;;22.24;44.31;101312.19;7394099;19;20090;-76
2022/09/06 10:52:05;;;;;;;6.00;3.05;;;;;;;22.36;43.89;101310.56;7393840;19;20090;-71
2022/09/06 10:54:37;;;;;;;4.68;3.10;;;;;;;22.49;44.12;101301.78;7394991;19;20018;-71
2022/09/06 10:57:13;;;;;;;2.92;2.60;;;;;;;22.62;43.40;101300.03;7394218;19;20453;-71
2022/09/06 10:59:48;;;;;;;4.63;2.80;;;;;;;22.71;43.54;101306.63;7395369;19;20027;-72
2022/09/06 11:02:37;;;;;;;6.00;3.13;;;;;;;22.75;42.86;101292.13;7392275;19;20046;-71
2022/09/06 11:05:10;;;;;;;4.63;3.17;;;;;;;22.80;42.91;101294.47;7398904;19;20018;-72
2022/09/06 11:07:43;;;;;;;5.47;2.90;;;;;;;22.80;42.77;101292.66;7399009;19;20098;-72
2022/09/06 11:10:20;;;;;;;5.40;3.17;;;;;;;22.84;42.75;101301.38;7397943;19;20034;-72
2022/09/06 11:12:56;;;;;;;5.88;3.28;;;;;;;22.85;42.79;101295.91;7398276;19;20011;-72
2022/09/06 11:15:27;;;;;;;7.10;3.47;;;;;;;22.84;43.01;101288.84;7400257;19;20099;-71
2022/09/06 11:18:00;;;;;;;8.18;3.78;;;;;;;22.86;42.93;101296.75;7401933;19;20056;-71
2022/09/06 11:20:34;;;;;;;9.93;5.07;;;;;;;22.86;43.25;101304.78;7399689;19;20481;-69
2022/09/06 11:23:41;;;;;;;4.07;3.33;;;;;;;22.90;43.11;101307.16;7396909;19;20024;-69
2022/09/06 11:26:38;;;;;;;5.20;3.50;;;;;;;22.99;43.04;101307.50;7399010;19;20119;-67
2022/09/06 11:29:10;;;;;;;7.32;3.92;;;;;;;23.08;42.83;101301.56;7400361;19;20035;-70
2022/09/06 11:32:00;;;;;;;5.10;3.50;;;;;;;23.14;42.85;101302.97;7398340;19;20015;-72
2022/09/06 11:34:31;;;;;;;5.72;3.65;;;;;;;23.16;42.76;101285.03;7399514;19;20369;-71
2022/09/06 11:37:02;;;;;;;6.05;3.40;;;;;;;23.19;42.94;101290.16;7400392;19;20099;-71
2022/09/06 11:39:36;;;;;;;8.80;3.65;;;;;;;23.25;42.65;101290.63;7399973;19;20011;-71
2022/09/06 11:42:09;;;;;;;6.15;3.80;;;;;;;23.32;42.42;101288.41;7397376;19;20355;-71
2022/09/06 11:45:09;;;;;;;5.03;3.72;;;;;;;23.43;42.83;101293.03;7401424;19;20324;-70
2022/09/06 11:47:39;;;;;;;6.97;3.80;;;;;;;23.54;42.81;101297.66;7397312;19;20022;-70
2022/09/06 11:50:26;;;;;;;4.93;4.03;;;;;;;23.65;42.14;101296.94;7400025;19;20014;-70
2022/09/06 11:53:03;;;;;;;4.70;3.13;;;;;;;23.74;42.18;101291.78;7400300;19;20022;-71